LFRV

Vannes-Meucon Airport

Airport
ICAO code
LFRV
IATA Code
VNE
Summary
ICAO Region
EUR
ICAO Territory
Location

, Bretagne

Serving
Vannes
Elevation
446 ft
Coordinates
47° 43' 24" N , 2° 43' 7" W
Metar
Observation
LFRV 280430Z AUTO 26009G21KT 190V330 9999 FEW014/// SCT029/// BKN041/// ///CB 08/08 Q1012
Station
Vannes-Meucon
Date/Time
2022-11-28 04:30:00
Wind direction
260°
Wind speed
09 kts
Lowest cloud amount
few clouds
Temperature
8°C
Dew point
8°C
Humidity
100%
QNH
1012 hPa
Weather condition
n/a

Runways

Designator Length Width Surface Rops
8/26 1025 60 GRS No/No
4/22 1530 45 ASP No/No

Airport map

Aerial View

SKYbrary Partners:

Safety knowledge contributed by: